CF Industries Institutional Ownership (NYSE:CF)

$49.29
-0.72 (-1.44 %)
(As of 09/22/2019 02:08 PM ET)
Today's Range
$49.25
Now: $49.29
$50.55
50-Day Range
$46.73
MA: $49.24
$52.68
52-Week Range
$38.90
Now: $49.29
$56.51
Volume1.44 million shs
Average Volume1.78 million shs
Market Capitalization$10.76 billion
P/E Ratio39.75
Dividend Yield2.40%
Beta0.92

Institutional Ownership

Institutional Ownership Changes (13F Filings) for CF Industries (NYSE:CF)

Institutional Ownership Percentage: 92.46%

CF Industries (NYSE CF) Institutional Buying and Selling

Reporting DateHedge FundShares HeldMarket Value% of PortfolioQuarterly Change in SharesOwnership in Company
9/6/2019BRITISH COLUMBIA INVESTMENT MANAGEMENT Corp118,712$5.55M0.0%+154.6%0.054%
8/26/2019Toronto Dominion Bank179,791$8.40M0.0%+22.9%0.082%
8/23/2019Treasurer of the State of North Carolina106,715$4.99M0.0%-6.3%0.049%
8/23/2019Mackenzie Financial Corp13,298$0.62M0.0%N/A0.006%
8/23/2019BlackRock Inc.18,670,957$872.12M0.0%-8.1%8.552%
8/20/2019Barings LLC132,994$6.21M0.1%-17.2%0.061%
8/17/2019Maverick Capital Ltd.138,920$6.49M0.1%-15.0%0.064%
8/17/2019Platinum Investment Management Ltd.2,494,161$116.50M2.7%-6.6%1.142%
8/17/2019Royal Bank of Canada140,301$6.55M0.0%-11.8%0.064%
8/17/2019Verition Fund Management LLC28,165$1.32M0.0%+37.1%0.013%
8/17/2019WealthStone Inc.8,808$0.41M0.2%N/A0.004%
8/17/2019Ladenburg Thalmann Financial Services Inc.7,002$0.33M0.0%-3.9%0.003%
8/16/2019Amundi Pioneer Asset Management Inc.644,820$33.45M0.0%+6.3%0.295%
8/16/2019United Services Automobile Association95,163$4.45M0.0%-15.8%0.044%
8/16/2019Susquehanna Fundamental Investments LLC95,100$4.44M0.5%+175.7%0.044%
8/15/2019California Public Employees Retirement System491,446$22.96M0.0%-11.8%0.225%
8/15/2019Cambridge Investment Research Advisors Inc.7,854$0.37M0.0%-8.3%0.004%
8/15/2019Worldquant Millennium Advisors LLC717,836$33.53M0.6%-12.2%0.329%
8/15/2019Pictet Asset Management Ltd.49,763$2.32M0.0%-31.3%0.023%
8/15/2019Green Square Asset Management LLC11,153$0.52M0.3%+2.5%0.005%
8/15/2019Nuveen Asset Management LLC2,287,101$106.83M0.0%+190.6%1.048%
8/15/2019Andra AP fonden36,700$1.71M0.0%-44.6%0.017%
8/15/2019Price T Rowe Associates Inc. MD15,177,727$708.95M0.1%+26.4%6.952%
8/15/2019Centaurus Financial Inc.19,166$0.90M0.1%+2,266.2%0.009%
8/15/2019Victory Capital Management Inc.664,385$31.03M0.1%+11.3%0.304%
8/15/2019UBS Asset Management Americas Inc.3,305,327$154.39M0.1%+167.1%1.514%
8/15/2019Neo Ivy Capital Management3,884$0.18M0.1%N/A0.002%
8/15/2019CSat Investment Advisory L.P.1,010$47K0.0%+27.5%0.000%
8/14/2019D. E. Shaw & Co. Inc.831,614$38.85M0.0%-2.7%0.381%
8/14/2019Cubist Systematic Strategies LLC56,366$2.63M0.0%+564.1%0.026%
8/14/2019Jefferies Group LLC26,163$1.22M0.0%+164.9%0.012%
8/14/2019Point72 Asset Management L.P.567,251$26.50M0.1%+364.6%0.260%
8/14/2019California State Teachers Retirement System359,970$16.81M0.0%-3.8%0.165%
8/14/2019Vivaldi Capital Management LLC15,162$0.71M0.2%-43.4%0.007%
8/14/2019Zurich Insurance Group Ltd FI45,784$2.14M0.0%N/A0.021%
8/14/2019Morgan Stanley317,302$14.82M0.0%-1.3%0.145%
8/14/2019AQR Capital Management LLC751,620$35.11M0.0%-45.6%0.344%
8/14/2019Paloma Partners Management Co49,543$2.32M0.0%-18.8%0.023%
8/14/2019Eminence Capital LP4,506,740$210.51M2.8%+12.9%2.064%
8/14/2019Man Group plc127,503$5.96M0.0%+414.1%0.058%
8/14/2019PointState Capital LP53,800$2.51M0.1%N/A0.025%
8/14/2019Brookfield Asset Management Inc.38,647$1.81M0.0%+53.7%0.018%
8/14/2019Balyasny Asset Management LLC362,382$16.93M0.1%-42.8%0.166%
8/14/2019Anchor Bolt Capital LP299,387$13.98M1.3%N/A0.137%
8/14/2019Putnam Investments LLC381,917$17.84M0.0%-10.1%0.175%
8/14/2019Mackenzie Financial Corp13,298$0.62M0.0%N/A0.006%
8/14/2019Invesco Ltd.5,007,158$233.88M0.1%-11.0%2.293%
8/14/2019Vanguard Group Inc.28,567,629$1.33B0.1%-2.3%13.085%
8/14/2019Cohen & Steers Inc.112,456$5.25M0.0%-0.8%0.052%
8/14/2019Columbus Hill Capital Management L.P.939,191$43.87M4.0%-30.5%0.430%
8/14/2019CoreCommodity Management LLC74,169$3.46M1.9%+29.1%0.034%
8/14/2019Ellington Management Group LLC5,000$0.23M0.0%N/A0.002%
8/14/2019Private Advisor Group LLC11,152$0.52M0.0%+98.2%0.005%
8/14/2019AMP Capital Investors Ltd68,975$3.25M0.0%-41.2%0.032%
8/14/2019A.R.T. Advisors LLC93,654$4.38M0.2%+14.7%0.043%
8/14/2019Rampart Investment Management Company LLC5,428$0.25M0.0%-88.8%0.002%
8/14/2019Strategy Asset Managers LLC13,349$0.62M0.2%-72.7%0.006%
8/14/2019Asset Management One Co. Ltd.115,625$5.40M0.0%+10.1%0.053%
8/13/2019Jacobs Levy Equity Management Inc.179,024$8.36M0.1%+92.1%0.082%
8/13/2019Tower Research Capital LLC TRC 2,283$0.11M0.0%-72.2%0.001%
8/13/2019Earnest Partners LLC159,751$7.46M0.1%+0.4%0.073%
8/13/2019BlackRock Inc.18,670,957$872.12M0.0%-8.1%8.552%
8/13/2019Nomura Asset Management Co. Ltd.45,047$2.10M0.0%+6.7%0.021%
8/13/2019Qtron Investments LLC11,958$0.56M0.3%+77.2%0.005%
8/13/2019US Bancorp DE12,868$0.60M0.0%-5.4%0.006%
8/13/2019S&T Bank PA299,172$13.98M3.1%+5.0%0.137%
8/13/2019HighTower Advisors LLC31,944$1.49M0.0%+194.4%0.015%
8/13/2019United Capital Financial Advisers LLC94,626$4.42M0.0%-5.9%0.043%
8/13/2019Profund Advisors LLC8,646$0.40M0.0%+6.6%0.004%
8/13/2019Bank of Nova Scotia37,587$1.76M0.0%-12.1%0.017%
8/13/2019Scotia Capital Inc.12,109$0.57M0.0%+4.7%0.006%
8/13/2019APG Asset Management N.V.205,321$8.42M0.0%-13.7%0.094%
8/13/2019Captrust Financial Advisors604$28K0.0%-71.6%0.000%
8/13/2019Parametric Portfolio Associates LLC984,492$45.99M0.0%-4.1%0.451%
8/13/2019MML Investors Services LLC7,586$0.35M0.0%-5.0%0.003%
8/13/2019Toronto Dominion Bank179,791$8.40M0.0%+22.9%0.082%
8/13/2019Seeyond8,079$0.38M0.0%-18.0%0.004%
8/13/2019Pictet Asset Management Ltd.49,763$2.32M0.0%-31.3%0.023%
8/13/2019Cibc World Markets Corp278,289$13M0.1%+2,154.4%0.127%
8/13/2019Meadow Creek Investment Management LLC72,012$3.36M0.1%+2.0%0.033%
8/13/2019Glen Harbor Capital Management LLC46,596$2.18M0.0%+2.0%0.021%
8/13/2019Commonwealth Bank of Australia45,103$2.10M0.0%-19.4%0.021%
8/13/2019AustralianSuper Pty Ltd55,224$2.58M0.0%-26.7%0.025%
8/13/2019Elkfork Partners LLC59,304$2.77M0.1%+2.0%0.027%
8/13/2019Northern Trust Corp4,340,159$202.73M0.0%-1.5%1.988%
8/13/2019Neuburgh Advisers LLC33,888$1.58M0.1%+2.0%0.016%
8/13/2019Canada Pension Plan Investment Board853,480$39.87M0.1%-11.9%0.391%
8/13/2019Natixis Advisors L.P.16,434$0.77M0.0%+9.3%0.008%
8/12/2019Public Employees Retirement System of Ohio72,911$3.41M0.0%-10.3%0.033%
8/12/2019GAM Holding AG44,999$2.10M0.1%N/A0.021%
8/12/2019Tiverton Asset Management LLC6,982$0.33M0.0%-18.6%0.003%
8/12/2019Pekin Hardy Strauss Inc.25,000$1.17M0.2%-16.1%0.011%
8/12/2019Brown Advisory Inc.6,063$0.28M0.0%-7.3%0.003%
8/12/2019Riverhead Capital Management LLC36,685$1.71M0.1%+2.8%0.017%
8/12/2019Pacer Advisors Inc.71,381$3.33M0.1%+16.6%0.033%
8/12/2019Cadence Capital Management LLC10,666$0.50M0.0%-19.7%0.005%
8/12/2019Veritable L.P.6,073$0.28M0.0%+15.8%0.003%
8/12/2019Cetera Investment Advisers5,509$0.26M0.0%-6.3%0.003%
8/12/2019Bank of New York Mellon Corp10,571,818$493.81M0.1%+26.5%4.842%
8/12/2019Quantamental Technologies LLC9,809$0.46M0.2%+5.7%0.004%
(Data available from 1/1/2016 forward)
This page was last updated on 9/22/2019 by MarketBeat.com Staff

Featured Article: What is Blockchain?

Enter your email address below to receive a concise daily summary of analysts' upgrades, downgrades and new coverage with MarketBeat.com's FREE daily email newsletter.

Yahoo Gemini Pixel